Time;durP1;ratioP1;P1;durP2;ratioP2;P2;SDS_P1;SDS_P2;PMS_P1;PMS_P2;Temp;Humidity;BMP_temperature;BMP_pressure;BME280_temperature;BME280_humidity;BME280_pressure;Samples;Min_cycle;Max_cycle;Signal;HPM_P1;HPM_P2
2022/02/28 00:02:18;;;;;;;18.50;9.90;;;;;;;-0.55;72.11;97708.03;5027443;28;20045;-66
2022/02/28 00:04:43;;;;;;;15.55;9.00;;;;;;;-0.55;71.88;97710.72;5033274;28;20396;-66
2022/02/28 00:07:08;;;;;;;16.73;9.27;;;;;;;-0.56;71.94;97715.28;5026826;28;20041;-66
2022/02/28 00:09:34;;;;;;;21.10;10.70;;;;;;;-0.55;71.81;97716.91;5032207;28;20072;-66
2022/02/28 00:11:59;;;;;;;22.20;10.00;;;;;;;-0.54;71.51;97710.47;5032312;28;20088;-67
2022/02/28 00:14:25;;;;;;;17.20;9.27;;;;;;;-0.41;70.79;97715.28;5028669;28;20052;-65
2022/02/28 00:16:51;;;;;;;16.83;9.55;;;;;;;-0.56;71.77;97720.66;5030817;28;20049;-66
2022/02/28 00:19:16;;;;;;;18.38;9.45;;;;;;;-0.54;71.67;97706.94;5027220;28;20124;-65
2022/02/28 00:21:42;;;;;;;20.00;8.55;;;;;;;-0.53;71.44;97712.06;5031753;28;20130;-65
2022/02/28 00:24:08;;;;;;;16.52;8.45;;;;;;;-0.63;71.75;97715.56;5024149;28;20053;-64
2022/02/28 00:26:33;;;;;;;16.08;9.73;;;;;;;-0.55;71.75;97708.03;5028125;28;20045;-66
2022/02/28 00:28:58;;;;;;;18.00;8.93;;;;;;;-0.56;71.81;97711.78;5032968;28;20037;-65
2022/02/28 00:31:24;;;;;;;19.63;9.75;;;;;;;-0.62;72.05;97702.91;5028622;28;20103;-66
2022/02/28 00:33:49;;;;;;;18.20;10.48;;;;;;;-0.57;71.77;97712.88;5031272;28;20331;-66
2022/02/28 00:36:15;;;;;;;16.40;9.20;;;;;;;-0.63;71.88;97718.25;5026634;28;20136;-65
2022/02/28 00:38:40;;;;;;;16.98;8.95;;;;;;;-0.65;71.82;97706.13;5026170;28;20055;-66
2022/02/28 00:41:05;;;;;;;18.83;9.90;;;;;;;-0.65;72.33;97720.41;5016624;28;20131;-65
2022/02/28 00:43:31;;;;;;;16.02;9.00;;;;;;;-0.59;71.59;97705.06;5020448;28;20102;-65
2022/02/28 00:45:57;;;;;;;17.65;9.40;;;;;;;-0.62;71.73;97705.59;5024134;28;20455;-66
2022/02/28 00:48:22;;;;;;;17.25;10.32;;;;;;;-0.65;72.27;97715.03;5018349;28;20805;-67
2022/02/28 00:50:48;;;;;;;16.40;9.18;;;;;;;-0.63;71.88;97720.13;5023107;28;20034;-64
2022/02/28 00:53:13;;;;;;;16.98;9.05;;;;;;;-0.64;71.81;97718.53;5017354;28;20406;-65
2022/02/28 00:55:39;;;;;;;20.40;10.02;;;;;;;-0.64;71.50;97724.69;5022495;28;20037;-65
2022/02/28 00:58:07;;;;;;;17.48;9.18;;;;;;;-0.66;71.80;97726.84;5016897;28;20052;-68
2022/02/28 01:00:32;;;;;;;17.27;8.80;;;;;;;-0.71;72.24;97728.75;5022451;28;20412;-65
2022/02/28 01:02:58;;;;;;;16.30;9.27;;;;;;;-0.80;72.49;97731.16;5022628;28;20038;-67
2022/02/28 01:05:23;;;;;;;17.75;8.95;;;;;;;-0.83;72.73;97732.50;5018321;28;20431;-66
2022/02/28 01:07:49;;;;;;;16.40;8.85;;;;;;;-0.89;72.76;97730.88;5022961;28;20061;-64
2022/02/28 01:10:18;;;;;;;18.73;8.82;;;;;;;-0.90;72.69;97723.88;5017897;28;20033;-65
2022/02/28 01:12:43;;;;;;;19.27;9.02;;;;;;;-0.97;73.16;97734.91;5021073;28;20106;-64
2022/02/28 01:15:12;;;;;;;14.23;8.63;;;;;;;-1.06;73.80;97731.13;5011220;28;20041;-63
2022/02/28 01:17:38;;;;;;;22.17;10.25;;;;;;;-1.13;74.24;97737.81;5024654;28;20735;-66
2022/02/28 01:20:05;;;;;;;20.27;10.00;;;;;;;-1.13;74.14;97737.81;5032477;28;20041;-63
2022/02/28 01:22:31;;;;;;;19.73;8.85;;;;;;;-1.17;74.06;97735.66;5032433;28;20031;-62
2022/02/28 01:24:56;;;;;;;17.30;9.38;;;;;;;-1.21;74.52;97731.06;5032579;28;20029;-64
2022/02/28 01:27:22;;;;;;;19.65;10.43;;;;;;;-1.27;74.73;97734.81;5034097;28;20049;-63
2022/02/28 01:29:48;;;;;;;21.45;11.35;;;;;;;-1.31;75.15;97745.28;5031584;28;20052;-65
2022/02/28 01:32:14;;;;;;;18.88;9.77;;;;;;;-1.26;74.89;97745.31;5030808;28;20033;-64
2022/02/28 01:34:40;;;;;;;14.23;8.55;;;;;;;-1.34;75.20;97737.75;5032328;28;20139;-65
2022/02/28 01:37:06;;;;;;;18.90;9.82;;;;;;;-1.32;75.21;97740.19;5032255;28;20041;-63
2022/02/28 01:39:31;;;;;;;18.77;10.32;;;;;;;-1.32;75.28;97742.88;5032463;28;20083;-64
2022/02/28 01:41:56;;;;;;;20.38;10.27;;;;;;;-1.35;75.17;97741.53;5031844;28;20080;-63
2022/02/28 01:44:22;;;;;;;20.10;10.25;;;;;;;-1.20;74.40;97749.63;5033128;28;20099;-64
2022/02/28 01:46:47;;;;;;;17.85;9.25;;;;;;;-1.25;74.71;97743.44;5035585;28;20386;-64
2022/02/28 01:49:13;;;;;;;18.23;9.60;;;;;;;-1.25;74.94;97754.97;5036358;28;20044;-65
2022/02/28 01:51:39;;;;;;;18.63;10.13;;;;;;;-1.24;74.74;97753.09;5036376;28;20048;-65
2022/02/28 01:54:05;;;;;;;19.13;10.00;;;;;;;-1.34;75.23;97759.25;5036419;28;20056;-64
2022/02/28 01:56:31;;;;;;;16.63;8.98;;;;;;;-1.28;74.62;97755.50;5037335;28;20037;-66
2022/02/28 01:58:57;;;;;;;17.27;8.38;;;;;;;-1.22;74.40;97756.34;5041435;28;20030;-66
2022/02/28 02:01:22;;;;;;;20.48;10.38;;;;;;;-1.27;74.73;97759.03;5036434;28;20056;-63
2022/02/28 02:03:48;;;;;;;21.30;9.75;;;;;;;-1.26;74.62;97758.75;5036622;28;20492;-64
2022/02/28 02:06:13;;;;;;;20.23;9.52;;;;;;;-1.29;74.83;97758.47;5036078;28;20026;-66
2022/02/28 02:08:40;;;;;;;20.98;10.55;;;;;;;-1.40;75.38;97754.94;5036352;28;20076;-65
2022/02/28 02:11:05;;;;;;;15.65;9.07;;;;;;;-1.27;75.04;97759.03;5034649;28;20033;-65
2022/02/28 02:13:32;;;;;;;18.33;9.07;;;;;;;-1.35;75.19;97765.72;5034911;28;20026;-66
2022/02/28 02:15:59;;;;;;;21.30;8.98;;;;;;;-1.25;74.88;97765.72;5035767;28;20032;-64
2022/02/28 02:18:25;;;;;;;18.70;9.23;;;;;;;-1.19;74.45;97767.38;5034367;28;20041;-66
2022/02/28 02:20:50;;;;;;;18.33;9.88;;;;;;;-1.19;74.70;97761.19;5032195;28;20073;-65
2022/02/28 02:23:16;;;;;;;17.52;8.68;;;;;;;-1.24;74.55;97772.75;5035374;28;20033;-66
2022/02/28 02:25:43;;;;;;;19.65;10.15;;;;;;;-1.31;74.63;97768.69;5035273;28;20074;-65
2022/02/28 02:28:12;;;;;;;21.42;9.02;;;;;;;-1.48;75.64;97763.50;5035465;28;20028;-64
2022/02/28 02:30:38;;;;;;;18.30;9.35;;;;;;;-1.61;76.13;97770.16;5035632;28;20444;-65
2022/02/28 02:33:04;;;;;;;17.08;8.93;;;;;;;-1.74;76.73;97771.44;5035187;28;20059;-65
2022/02/28 02:35:29;;;;;;;18.80;9.32;;;;;;;-1.71;76.86;97773.63;5035516;28;20040;-64
2022/02/28 02:37:55;;;;;;;17.35;9.02;;;;;;;-1.76;77.42;97785.13;5029732;28;20030;-63
2022/02/28 02:40:20;;;;;;;20.60;11.10;;;;;;;-1.71;77.11;97779.00;5014551;28;20034;-63
2022/02/28 02:42:46;;;;;;;19.52;10.23;;;;;;;-1.80;77.21;97780.53;5014693;28;20037;-65
2022/02/28 02:45:12;;;;;;;18.58;9.60;;;;;;;-1.87;78.11;97779.94;5013899;28;20048;-63
2022/02/28 02:47:37;;;;;;;19.85;10.23;;;;;;;-1.97;78.59;97778.00;5015184;28;20037;-64
2022/02/28 02:50:05;;;;;;;22.83;9.85;;;;;;;-1.93;78.11;97782.63;5014840;28;20402;-64
2022/02/28 02:52:30;;;;;;;19.58;9.30;;;;;;;-1.87;78.19;97779.94;5016883;28;20026;-62
2022/02/28 02:54:56;;;;;;;21.58;9.52;;;;;;;-1.86;77.96;97782.38;5018058;28;20402;-63
2022/02/28 02:57:21;;;;;;;19.00;10.32;;;;;;;-1.87;78.22;97788.00;5015017;28;20572;-62
2022/02/28 02:59:47;;;;;;;23.15;10.07;;;;;;;-1.97;78.88;97784.19;5015173;28;20030;-63
2022/02/28 03:02:13;;;;;;;23.40;10.43;;;;;;;-2.03;79.39;97789.81;5014077;28;20046;-64
2022/02/28 03:04:38;;;;;;;17.98;10.00;;;;;;;-2.12;79.89;97789.47;5015909;28;20103;-65
2022/02/28 03:07:15;;;;;;;24.45;10.70;;;;;;;-2.09;79.78;97788.94;5019687;28;20044;-63
2022/02/28 03:09:42;;;;;;;20.05;10.43;;;;;;;-2.13;80.12;97788.63;5033089;28;20033;-61
2022/02/28 03:12:08;;;;;;;21.40;10.77;;;;;;;-2.15;80.47;97787.28;5052817;28;20087;-62
2022/02/28 03:14:33;;;;;;;19.83;10.30;;;;;;;-2.21;80.73;97788.34;5035272;28;20485;-64
2022/02/28 03:16:58;;;;;;;25.52;11.18;;;;;;;-2.29;81.32;97781.53;5034531;28;20029;-60
2022/02/28 03:19:24;;;;;;;21.95;10.82;;;;;;;-2.33;81.71;97789.28;5035188;28;20521;-63
2022/02/28 03:21:49;;;;;;;22.33;11.15;;;;;;;-2.28;81.36;97787.75;5034602;28;20068;-63
2022/02/28 03:24:15;;;;;;;23.88;10.80;;;;;;;-2.31;81.67;97784.47;5035232;28;20109;-64
2022/02/28 03:26:40;;;;;;;21.55;10.75;;;;;;;-2.35;81.98;97787.94;5035967;28;20029;-65
2022/02/28 03:29:06;;;;;;;21.73;10.88;;;;;;;-2.38;82.09;97791.13;5036742;28;20060;-66
2022/02/28 03:31:31;;;;;;;23.00;10.98;;;;;;;-2.39;82.31;97781.47;5017593;28;20026;-66
2022/02/28 03:33:57;;;;;;;24.98;11.85;;;;;;;-2.46;82.78;97792.41;5036003;28;20025;-67
2022/02/28 03:36:22;;;;;;;20.30;10.90;;;;;;;-2.41;82.64;97794.31;5034235;28;20071;-64
2022/02/28 03:38:48;;;;;;;22.00;10.98;;;;;;;-2.48;82.95;97799.91;5035712;28;20029;-65
2022/02/28 03:41:13;;;;;;;23.13;11.43;;;;;;;-2.56;83.56;97797.69;5035451;28;20037;-65
2022/02/28 03:43:39;;;;;;;22.95;11.77;;;;;;;-2.53;83.73;97795.31;5034176;28;20552;-66
2022/02/28 03:46:04;;;;;;;23.75;12.30;;;;;;;-2.56;83.74;97798.47;5035427;28;20026;-64
2022/02/28 03:48:30;;;;;;;19.38;11.38;;;;;;;-2.65;84.37;97807.25;5035497;28;20036;-64
2022/02/28 03:50:55;;;;;;;21.65;11.32;;;;;;;-2.67;84.30;97812.06;5036362;28;20041;-65
2022/02/28 03:53:20;;;;;;;25.20;11.95;;;;;;;-2.64;84.32;97817.75;5036240;28;20038;-66
2022/02/28 03:55:46;;;;;;;23.92;12.38;;;;;;;-2.71;84.51;97823.28;5035431;28;20029;-66
2022/02/28 03:58:11;;;;;;;21.35;11.52;;;;;;;-2.66;84.36;97827.13;5033553;28;20042;-65
2022/02/28 04:00:37;;;;;;;18.33;10.77;;;;;;;-2.77;84.62;97829.69;5036299;28;20110;-65
2022/02/28 04:03:02;;;;;;;24.70;11.85;;;;;;;-2.76;85.08;97828.59;5031739;28;20041;-65
2022/02/28 04:05:27;;;;;;;19.90;10.35;;;;;;;-2.60;84.84;97840.31;5033872;28;20045;-65
2022/02/28 04:07:54;;;;;;;20.25;10.82;;;;;;;-2.45;83.78;97836.16;5035277;28;20091;-66
2022/02/28 04:10:20;;;;;;;17.75;10.23;;;;;;;-2.52;83.89;97834.50;5037247;28;20033;-64
2022/02/28 04:12:45;;;;;;;24.98;11.48;;;;;;;-2.66;84.28;97835.97;5036841;28;20060;-64
2022/02/28 04:15:11;;;;;;;19.30;9.40;;;;;;;-2.76;84.80;97831.28;5038191;28;20116;-65
2022/02/28 04:17:36;;;;;;;19.60;10.10;;;;;;;-2.83;85.31;97837.91;5040632;28;20033;-65
2022/02/28 04:20:04;;;;;;;20.00;9.70;;;;;;;-2.90;85.33;97836.25;5039420;28;20044;-64
2022/02/28 04:22:30;;;;;;;18.67;9.57;;;;;;;-3.03;86.53;97828.59;5037463;28;20041;-66
2022/02/28 04:24:55;;;;;;;16.88;9.85;;;;;;;-3.11;87.75;97821.00;5039421;28;20029;-65
2022/02/28 04:27:21;;;;;;;22.90;11.43;;;;;;;-3.30;87.76;97826.66;5038620;28;20033;-64
2022/02/28 04:29:46;;;;;;;20.85;10.60;;;;;;;-3.51;89.32;97825.59;5038059;28;20041;-64
2022/02/28 04:32:11;;;;;;;23.08;10.98;;;;;;;-3.73;89.97;97824.75;5041000;28;20032;-64
2022/02/28 04:34:37;;;;;;;16.70;9.38;;;;;;;-3.84;90.56;97826.47;5042108;28;20041;-64
2022/02/28 04:37:03;;;;;;;24.95;10.43;;;;;;;-3.79;91.86;97825.75;5040907;28;20063;-64
2022/02/28 04:39:28;;;;;;;20.95;10.50;;;;;;;-3.80;91.40;97824.13;5040545;28;20025;-64
2022/02/28 04:41:53;;;;;;;26.35;10.65;;;;;;;-3.78;91.67;97822.00;5039895;28;20036;-66
2022/02/28 04:44:19;;;;;;;21.67;10.85;;;;;;;-3.71;93.11;97823.47;5035581;28;20128;-64
2022/02/28 04:46:44;;;;;;;22.83;10.65;;;;;;;-3.69;92.36;97821.34;5026770;28;20533;-64
2022/02/28 04:49:10;;;;;;;24.50;11.52;;;;;;;-3.84;91.00;97827.28;5026272;28;20029;-64
2022/02/28 04:51:35;;;;;;;22.98;11.20;;;;;;;-3.97;91.19;97832.19;5033006;28;20052;-65
2022/02/28 04:54:00;;;;;;;18.27;9.65;;;;;;;-4.08;92.64;97833.91;5032357;28;20029;-64
2022/02/28 04:56:26;;;;;;;23.65;10.50;;;;;;;-4.07;93.69;97838.16;5027486;28;20460;-65
2022/02/28 04:58:53;;;;;;;21.70;10.73;;;;;;;-4.18;92.83;97847.09;5032686;28;20157;-65
2022/02/28 05:01:18;;;;;;;24.52;11.25;;;;;;;-4.29;93.29;97851.47;5030845;28;20064;-64
2022/02/28 05:03:44;;;;;;;22.90;9.95;;;;;;;-4.38;94.02;97851.06;5032753;28;20044;-63
2022/02/28 05:06:09;;;;;;;23.98;10.73;;;;;;;-4.47;94.50;97847.16;5031606;28;20029;-64
2022/02/28 05:08:35;;;;;;;18.95;9.52;;;;;;;-4.57;94.59;97846.97;5033463;28;20021;-65
2022/02/28 05:11:00;;;;;;;26.02;10.40;;;;;;;-4.65;94.03;97848.19;5033838;28;20051;-65
2022/02/28 05:13:26;;;;;;;20.33;10.75;;;;;;;-4.69;95.17;97858.53;5030778;28;20053;-64
2022/02/28 05:15:51;;;;;;;17.75;9.82;;;;;;;-4.74;95.73;97853.09;5025585;28;20044;-65
2022/02/28 05:18:17;;;;;;;21.65;10.90;;;;;;;-4.82;97.53;97851.63;5033830;28;20060;-64
2022/02/28 05:20:42;;;;;;;22.02;10.63;;;;;;;-4.90;97.53;97857.34;5037019;28;20025;-64
2022/02/28 05:23:08;;;;;;;20.00;9.95;;;;;;;-4.88;98.32;97857.13;5037870;28;20121;-65
2022/02/28 05:25:33;;;;;;;25.38;10.10;;;;;;;-4.94;98.07;97864.22;5036654;28;20045;-65
2022/02/28 05:27:59;;;;;;;23.20;10.82;;;;;;;-5.07;97.89;97861.84;5034154;28;20057;-64
2022/02/28 05:30:24;;;;;;;22.13;11.10;;;;;;;-5.16;99.83;97860.59;5033094;28;20044;-64
2022/02/28 05:32:50;;;;;;;19.95;10.77;;;;;;;-5.26;99.32;97855.84;5033898;28;20112;-65
2022/02/28 05:35:15;;;;;;;23.40;10.90;;;;;;;-5.30;98.96;97865.38;5035321;28;20061;-63
2022/02/28 05:37:41;;;;;;;22.35;10.48;;;;;;;-5.34;98.72;97862.38;5035450;28;20109;-66
2022/02/28 05:40:09;;;;;;;26.23;10.77;;;;;;;-5.20;100.00;97863.72;5036019;28;20034;-63
2022/02/28 05:42:35;;;;;;;27.73;10.52;;;;;;;-5.18;100.00;97863.50;5036990;28;20136;-65
2022/02/28 05:45:01;;;;;;;28.58;10.52;;;;;;;-5.24;99.89;97881.28;5035690;28;20124;-64
2022/02/28 05:47:26;;;;;;;25.38;11.30;;;;;;;-5.26;100.00;97875.38;5037103;28;20089;-65
2022/02/28 05:49:52;;;;;;;24.17;11.45;;;;;;;-5.16;100.00;97873.94;5036233;28;20029;-62
2022/02/28 05:52:17;;;;;;;24.90;11.13;;;;;;;-4.99;100.00;97874.81;5034195;28;20032;-65
2022/02/28 05:54:43;;;;;;;19.60;11.27;;;;;;;-5.01;100.00;97872.38;5036990;28;20045;-65
2022/02/28 05:57:08;;;;;;;26.52;11.40;;;;;;;-5.11;100.00;97874.03;5034665;28;20037;-65
2022/02/28 05:59:33;;;;;;;31.67;12.95;;;;;;;-5.24;100.00;97877.78;5035886;28;20037;-64
2022/02/28 06:01:59;;;;;;;30.70;14.48;;;;;;;-5.30;100.00;97884.06;5040333;28;20033;-65
2022/02/28 06:04:25;;;;;;;30.77;15.63;;;;;;;-5.38;100.00;97885.25;5036146;28;20057;-66
2022/02/28 06:06:50;;;;;;;27.25;12.55;;;;;;;-5.41;100.00;97886.53;5035988;28;20029;-65
2022/02/28 06:09:16;;;;;;;25.33;11.40;;;;;;;-5.40;100.00;97888.16;5033885;28;20033;-64
2022/02/28 06:11:41;;;;;;;22.65;11.45;;;;;;;-5.39;100.00;97884.41;5035947;28;20112;-65
2022/02/28 06:14:07;;;;;;;28.02;12.20;;;;;;;-5.35;100.00;97890.09;5036446;28;20047;-65
2022/02/28 06:16:33;;;;;;;23.92;12.25;;;;;;;-5.07;100.00;97896.56;5036208;28;20038;-62
2022/02/28 06:18:58;;;;;;;24.83;11.45;;;;;;;-4.92;100.00;97888.84;5037345;28;20113;-62
2022/02/28 06:21:24;;;;;;;28.40;12.55;;;;;;;-4.77;100.00;97892.88;5034695;28;20456;-65
2022/02/28 06:23:49;;;;;;;28.05;11.50;;;;;;;-4.67;100.00;97896.53;5028967;28;20029;-63
2022/02/28 06:26:14;;;;;;;24.25;12.43;;;;;;;-4.84;100.00;97896.50;5034366;28;20087;-64
2022/02/28 06:28:40;;;;;;;24.45;11.73;;;;;;;-4.94;100.00;97903.50;5029927;28;20401;-65
2022/02/28 06:31:06;;;;;;;25.67;12.73;;;;;;;-4.99;100.00;97898.84;5035602;28;20030;-66
2022/02/28 06:33:32;;;;;;;25.85;12.55;;;;;;;-5.00;100.00;97897.25;5038637;28;20033;-67
2022/02/28 06:35:59;;;;;;;26.52;12.50;;;;;;;-4.95;100.00;97899.19;5037645;28;20107;-67
2022/02/28 06:38:28;;;;;;;26.67;12.88;;;;;;;-4.70;100.00;97889.03;5036168;28;20029;-67
2022/02/28 06:40:53;;;;;;;25.55;12.77;;;;;;;-4.52;100.00;97900.53;5035221;28;20040;-67
2022/02/28 06:43:24;;;;;;;28.92;13.15;;;;;;;-4.25;100.00;97906.09;5034507;28;20029;-66
2022/02/28 06:45:51;;;;;;;28.58;12.60;;;;;;;-4.03;100.00;97904.34;5036282;28;20708;-68
2022/02/28 06:48:17;;;;;;;27.92;14.88;;;;;;;-3.84;100.00;97899.56;5036781;28;20066;-65
2022/02/28 06:50:45;;;;;;;32.38;13.77;;;;;;;-3.60;99.13;97891.38;5036589;28;20025;-65
2022/02/28 06:53:11;;;;;;;29.17;13.27;;;;;;;-3.23;100.00;97898.03;5033674;28;20026;-66
2022/02/28 06:55:40;;;;;;;29.80;14.65;;;;;;;-2.79;93.50;97890.81;5018441;28;20040;-67
2022/02/28 06:58:06;;;;;;;28.73;16.88;;;;;;;-2.09;90.36;97888.25;5033698;28;20044;-67
2022/02/28 07:00:32;;;;;;;33.55;18.08;;;;;;;-1.57;86.08;97897.53;5034216;28;20104;-66
2022/02/28 07:02:57;;;;;;;31.48;16.17;;;;;;;-1.46;84.36;97898.41;5035936;28;20089;-65
2022/02/28 07:05:22;;;;;;;22.73;13.05;;;;;;;-1.77;85.44;97901.69;5036755;28;20065;-66
2022/02/28 07:07:48;;;;;;;32.75;15.48;;;;;;;-1.40;83.92;97897.38;5037401;28;20124;-66
2022/02/28 07:10:13;;;;;;;43.70;20.13;;;;;;;-1.18;82.96;97897.22;5035570;28;20037;-65
2022/02/28 07:12:39;;;;;;;25.00;14.23;;;;;;;-0.68;80.52;97895.03;5036112;28;20504;-68
2022/02/28 07:15:05;;;;;;;25.48;14.43;;;;;;;-0.56;81.28;97897.47;5036856;28;20025;-66
2022/02/28 07:17:32;;;;;;;27.60;17.23;;;;;;;-1.05;81.77;97894.06;5027818;28;20041;-65
2022/02/28 07:19:57;;;;;;;26.20;14.25;;;;;;;-0.45;79.45;97894.56;5027621;28;20679;-66
2022/02/28 07:22:23;;;;;;;27.38;13.30;;;;;;;-0.25;77.27;97901.84;5035973;28;20112;-64
2022/02/28 07:24:48;;;;;;;27.38;15.60;;;;;;;-0.27;77.03;97897.81;5032112;28;20038;-65
2022/02/28 07:27:13;;;;;;;26.45;14.55;;;;;;;0.95;73.35;97891.53;5035288;28;20117;-65
2022/02/28 07:29:39;;;;;;;22.63;12.80;;;;;;;1.22;70.80;97894.94;5045298;28;20059;-64
2022/02/28 07:32:05;;;;;;;22.02;12.18;;;;;;;1.00;70.93;97904.19;5038278;28;20029;-65
2022/02/28 07:34:30;;;;;;;24.40;12.95;;;;;;;0.80;71.89;97910.44;5037593;28;20486;-65
2022/02/28 07:36:55;;;;;;;23.23;12.55;;;;;;;1.10;70.93;97920.34;5028896;28;20120;-63
2022/02/28 07:39:21;;;;;;;25.75;13.55;;;;;;;2.14;68.21;97918.72;5032155;28;20041;-64
2022/02/28 07:41:47;;;;;;;24.02;12.13;;;;;;;2.19;67.27;97924.06;5033885;28;20034;-64
2022/02/28 07:44:13;;;;;;;26.00;14.60;;;;;;;1.21;69.52;97923.03;5035880;28;20045;-63
2022/02/28 07:46:42;;;;;;;24.45;13.55;;;;;;;0.88;71.40;97927.97;5030059;28;20363;-67
2022/02/28 07:49:08;;;;;;;24.73;12.45;;;;;;;0.88;70.53;97934.19;5036118;28;20033;-67
2022/02/28 07:51:33;;;;;;;23.50;13.38;;;;;;;0.66;71.53;97930.97;5036363;28;20038;-67
2022/02/28 07:53:59;;;;;;;21.73;12.55;;;;;;;1.21;69.95;97925.72;5034777;28;20047;-66
2022/02/28 07:56:25;;;;;;;30.55;15.82;;;;;;;1.41;70.75;97922.94;5021132;28;20041;-67
2022/02/28 07:58:51;;;;;;;24.95;12.48;;;;;;;2.15;68.40;97924.94;5006786;28;20042;-66
2022/02/28 08:01:16;;;;;;;22.00;11.75;;;;;;;1.82;66.83;97916.50;5001849;28;20038;-67
2022/02/28 08:03:42;;;;;;;26.80;15.20;;;;;;;1.76;67.45;97921.13;5006552;28;20042;-66
2022/02/28 08:06:07;;;;;;;28.63;15.48;;;;;;;1.82;67.59;97921.91;5009819;28;20878;-66
2022/02/28 08:08:33;;;;;;;25.05;12.98;;;;;;;2.19;66.89;97918.66;5024991;28;20053;-65
2022/02/28 08:10:58;;;;;;;23.73;11.70;;;;;;;1.10;69.42;97908.75;5019899;28;20233;-65
2022/02/28 08:13:23;;;;;;;22.17;12.38;;;;;;;1.21;69.31;97910.34;5030684;28;20127;-63
2022/02/28 08:15:49;;;;;;;21.75;12.35;;;;;;;1.49;69.33;97913.44;5024855;28;20045;-64
2022/02/28 08:18:14;;;;;;;21.48;11.80;;;;;;;2.48;65.07;97902.50;5019967;28;20072;-65
2022/02/28 08:20:40;;;;;;;24.83;13.07;;;;;;;2.28;65.36;97913.47;5024116;28;20389;-65
2022/02/28 08:23:06;;;;;;;22.77;11.93;;;;;;;1.84;67.45;97914.34;5019869;28;20038;-64
2022/02/28 08:25:32;;;;;;;24.92;12.13;;;;;;;2.54;66.47;97907.84;5023657;28;20051;-65
2022/02/28 08:27:57;;;;;;;21.40;12.23;;;;;;;1.55;68.13;97920.44;5040178;28;20143;-65
2022/02/28 08:30:22;;;;;;;23.85;14.20;;;;;;;2.21;67.25;97913.78;5020227;28;20262;-65
2022/02/28 08:32:48;;;;;;;27.35;14.82;;;;;;;2.12;65.78;97918.19;5023965;28;20125;-65
2022/02/28 08:35:17;;;;;;;24.13;12.32;;;;;;;2.33;65.44;97913.44;5005260;28;20038;-65
2022/02/28 08:37:42;;;;;;;17.07;10.80;;;;;;;1.76;67.78;97917.63;5003546;28;20046;-66
2022/02/28 08:40:08;;;;;;;25.92;14.77;;;;;;;2.63;65.13;97908.88;5016729;28;20092;-66
2022/02/28 08:42:34;;;;;;;23.55;12.10;;;;;;;2.50;64.10;97913.00;5024437;28;20132;-66
2022/02/28 08:45:03;;;;;;;27.13;15.93;;;;;;;3.17;63.84;97912.34;5024877;28;20037;-67
2022/02/28 08:47:30;;;;;;;23.63;12.38;;;;;;;2.61;63.47;97917.25;5020935;28;20083;-64
2022/02/28 08:49:55;;;;;;;23.65;11.57;;;;;;;2.75;63.92;97922.78;5023528;28;20038;-65
2022/02/28 08:52:20;;;;;;;22.33;11.57;;;;;;;3.38;62.36;97918.31;5019346;28;20046;-66
2022/02/28 08:54:46;;;;;;;22.90;12.68;;;;;;;4.58;58.47;97907.06;5023988;28;20135;-65
2022/02/28 08:57:12;;;;;;;21.73;11.55;;;;;;;5.08;55.90;97911.09;5020215;28;20048;-67
2022/02/28 08:59:37;;;;;;;18.83;10.25;;;;;;;4.95;57.68;97918.91;5023808;28;20048;-66
2022/02/28 09:02:04;;;;;;;21.25;11.80;;;;;;;3.28;60.55;97921.16;5022374;28;20038;-66
2022/02/28 09:04:30;;;;;;;21.13;12.27;;;;;;;3.56;62.84;97916.75;5021390;28;20478;-66
2022/02/28 09:06:58;;;;;;;24.98;15.70;;;;;;;3.88;61.70;97917.94;5023374;28;20045;-66
2022/02/28 09:09:25;;;;;;;19.98;11.38;;;;;;;3.94;61.59;97924.91;5017849;28;20996;-66
2022/02/28 09:11:50;;;;;;;24.38;12.77;;;;;;;3.33;61.33;97924.63;5040092;28;20041;-65
2022/02/28 09:14:16;;;;;;;21.00;9.55;;;;;;;3.94;60.34;97928.44;5018380;28;20045;-65
2022/02/28 09:16:41;;;;;;;17.88;10.40;;;;;;;5.23;58.26;97918.13;5024177;28;20046;-66
2022/02/28 09:19:06;;;;;;;20.95;10.43;;;;;;;6.51;52.08;97924.28;5017292;28;20045;-64
2022/02/28 09:21:32;;;;;;;18.33;11.13;;;;;;;5.47;53.10;97926.06;5023085;28;20498;-65
2022/02/28 09:23:58;;;;;;;20.17;11.10;;;;;;;4.84;55.18;97928.31;5024067;28;20046;-66
2022/02/28 09:26:24;;;;;;;19.92;10.32;;;;;;;4.29;56.83;97926.28;5018087;28;20429;-66
2022/02/28 09:28:49;;;;;;;18.55;11.02;;;;;;;6.86;51.41;97926.41;5024004;28;20042;-66
2022/02/28 09:31:15;;;;;;;18.45;10.77;;;;;;;8.21;47.59;97919.56;5016964;28;20355;-66
2022/02/28 09:33:40;;;;;;;18.20;9.98;;;;;;;10.19;43.17;97927.72;5023629;28;20044;-66
2022/02/28 09:36:07;;;;;;;19.70;9.68;;;;;;;10.43;41.70;97927.06;5017403;28;20045;-65
2022/02/28 09:38:33;;;;;;;15.63;9.35;;;;;;;10.06;40.01;97924.09;5031168;28;20054;-66
2022/02/28 09:41:00;;;;;;;17.17;10.15;;;;;;;8.99;42.88;97935.88;5030051;28;20456;-67
2022/02/28 09:43:26;;;;;;;20.67;10.38;;;;;;;11.09;40.29;97924.31;5016367;28;20049;-66
2022/02/28 09:45:53;;;;;;;14.52;8.85;;;;;;;12.26;38.92;97922.09;5018489;28;20037;-66
2022/02/28 09:48:19;;;;;;;14.93;9.43;;;;;;;11.99;37.57;97935.44;5014761;28;20045;-66
2022/02/28 09:50:45;;;;;;;16.67;10.30;;;;;;;6.96;46.49;97928.09;5015446;28;20167;-66
2022/02/28 09:53:10;;;;;;;19.17;10.40;;;;;;;5.11;53.05;97932.19;5017509;28;20068;-66
2022/02/28 09:55:35;;;;;;;19.63;11.57;;;;;;;6.12;51.52;97925.78;5015241;28;20056;-68
2022/02/28 09:58:01;;;;;;;18.80;11.05;;;;;;;4.72;54.39;97933.44;5022918;28;20049;-66
2022/02/28 10:00:27;;;;;;;21.42;12.02;;;;;;;4.12;57.56;97944.97;5011295;28;20046;-67
2022/02/28 10:02:56;;;;;;;22.40;11.82;;;;;;;5.22;57.68;97943.66;5021314;28;20045;-66
2022/02/28 10:05:23;;;;;;;19.27;10.50;;;;;;;7.48;50.13;97936.47;5012822;28;21570;-67
2022/02/28 10:07:58;;;;;;;18.95;10.70;;;;;;;7.74;48.56;97942.00;5021426;28;20095;-67
2022/02/28 10:10:27;;;;;;;17.75;10.30;;;;;;;5.42;53.16;97942.47;5018276;28;20409;-66
2022/02/28 10:12:53;;;;;;;18.00;10.47;;;;;;;6.24;52.38;97941.53;5018560;28;20091;-66
2022/02/28 10:15:23;;;;;;;19.20;10.23;;;;;;;8.55;47.66;97940.66;5016507;28;20319;-66
2022/02/28 10:17:57;;;;;;;24.23;11.52;;;;;;;10.69;41.62;97933.09;5022226;28;20477;-66
2022/02/28 10:20:37;;;;;;;19.60;11.10;;;;;;;10.88;40.55;97931.81;5020610;28;20063;-67
2022/02/28 10:23:03;;;;;;;;;;;;;;;6.88;49.66;97938.63;5014362;28;20046;-65
2022/02/28 10:25:32;;;;;;;18.00;10.75;;;;;;;6.59;50.50;97927.38;5011889;28;19921;-66
2022/02/28 10:28:17;;;;;;;;;;;;;;;7.30;50.63;97923.91;5025231;28;20103;-65
2022/02/28 10:30:50;;;;;;;18.50;10.05;;;;;;;10.37;42.98;97920.19;5013785;28;19916;-66
2022/02/28 10:33:15;;;;;;;20.45;10.65;;;;;;;11.60;40.09;97928.69;5008187;28;20077;-67
2022/02/28 10:36:10;;;;;;;17.48;9.50;;;;;;;12.19;38.62;97922.69;5025703;28;20049;-68
2022/02/28 10:38:36;;;;;;;17.25;10.75;;;;;;;11.96;36.83;97927.09;5020487;28;20042;-67
2022/02/28 10:41:04;;;;;;;17.10;10.07;;;;;;;10.59;39.36;97925.31;5024857;28;20045;-65
2022/02/28 10:43:41;;;;;;;21.33;11.15;;;;;;;10.75;39.88;97924.66;5024493;28;20080;-66
2022/02/28 10:46:18;;;;;;;20.05;10.40;;;;;;;11.45;37.93;97925.50;5022207;28;20054;-66
2022/02/28 10:49:00;;;;;;;17.45;10.10;;;;;;;10.52;39.76;97923.13;5029039;28;20109;-66
2022/02/28 10:51:26;;;;;;;20.63;10.80;;;;;;;10.50;39.68;97921.84;5021984;28;20045;-67
2022/02/28 10:54:13;;;;;;;17.42;10.50;;;;;;;9.73;42.35;97905.66;5028577;28;20112;-66
2022/02/28 10:56:46;;;;;;;17.95;10.13;;;;;;;10.26;41.58;97917.03;5025921;28;20041;-66
2022/02/28 10:59:12;;;;;;;16.10;9.95;;;;;;;9.97;42.50;97913.22;5018708;28;20052;-67
2022/02/28 11:01:39;;;;;;;20.98;11.00;;;;;;;9.07;45.36;97912.38;5024610;28;20128;-65
2022/02/28 11:04:07;;;;;;;19.38;10.57;;;;;;;9.87;43.89;97902.69;5020561;28;20037;-66
2022/02/28 11:06:34;;;;;;;19.42;9.82;;;;;;;9.42;45.00;97903.22;5025219;28;20107;-66
2022/02/28 11:09:00;;;;;;;18.98;11.05;;;;;;;9.53;44.36;97897.06;5040252;28;20644;-65
2022/02/28 11:11:25;;;;;;;14.00;9.48;;;;;;;8.92;45.48;97894.59;5020626;28;20589;-65
2022/02/28 11:13:51;;;;;;;19.52;10.00;;;;;;;9.09;44.23;97888.28;5020651;28;20060;-65
2022/02/28 11:16:17;;;;;;;16.17;9.43;;;;;;;8.44;44.65;97897.59;5016672;28;20387;-66
2022/02/28 11:18:43;;;;;;;16.45;9.88;;;;;;;8.60;46.27;97877.66;5025223;28;20363;-66